createdAt,value
2019-05-07T00:01:06.864Z,75.10
2019-05-07T00:03:35.714Z,74.80
2019-05-07T00:06:04.354Z,74.30
2019-05-07T00:08:32.851Z,73.60
2019-05-07T00:11:02.515Z,73.10
2019-05-07T00:13:33.317Z,73.00
2019-05-07T00:16:02.488Z,73.00
2019-05-07T00:18:32.293Z,73.30
2019-05-07T00:21:03.372Z,74.00
2019-05-07T00:23:32.497Z,73.70
2019-05-07T00:26:02.518Z,73.70
2019-05-07T00:28:32.446Z,73.50
2019-05-07T00:31:02.935Z,73.60
2019-05-07T00:33:32.448Z,73.50
2019-05-07T00:36:02.782Z,73.50
2019-05-07T00:38:32.891Z,73.90
2019-05-07T00:41:03.249Z,74.40
2019-05-07T00:43:33.099Z,74.70
2019-05-07T00:46:03.293Z,75.00
2019-05-07T00:48:32.789Z,75.60
2019-05-07T00:51:19.369Z,75.60
2019-05-07T00:53:47.925Z,75.30
2019-05-07T00:56:16.469Z,75.10
2019-05-07T00:58:45.365Z,75.00
2019-05-07T01:01:13.887Z,75.00
2019-05-07T01:03:42.587Z,75.10
2019-05-07T01:06:12.893Z,75.00
2019-05-07T01:08:43.031Z,75.30
2019-05-07T01:11:13.168Z,75.40
2019-05-07T01:13:43.259Z,75.50
2019-05-07T01:16:12.982Z,75.30
2019-05-07T01:18:42.187Z,75.50
2019-05-07T01:21:13.093Z,75.80
2019-05-07T01:23:42.816Z,76.30
2019-05-07T01:26:12.437Z,76.30
2019-05-07T01:28:59.223Z,76.60
2019-05-07T01:31:34.539Z,76.70
2019-05-07T01:34:22.930Z,76.50
2019-05-07T01:36:52.348Z,76.90
2019-05-07T01:39:23.020Z,76.90
2019-05-07T01:41:52.419Z,77.00
2019-05-07T01:44:22.135Z,77.10
2019-05-07T01:46:52.886Z,76.50
2019-05-07T01:49:23.853Z,76.40
2019-05-07T01:51:52.992Z,76.00
2019-05-07T01:54:23.690Z,76.00
2019-05-07T01:56:52.252Z,75.70
2019-05-07T01:59:22.492Z,76.40
2019-05-07T02:01:52.998Z,76.80
2019-05-07T02:04:35.072Z,77.20
2019-05-07T02:07:13.751Z,77.10
2019-05-07T02:09:46.557Z,76.60
2019-05-07T02:12:19.490Z,76.60
2019-05-07T02:14:47.956Z,77.60
2019-05-07T02:17:16.425Z,78.50
2019-05-07T02:19:44.956Z,78.90
2019-05-07T02:22:13.541Z,78.50
2019-05-07T02:24:43.423Z,79.00
2019-05-07T02:27:12.699Z,79.30
2019-05-07T02:29:43.029Z,79.20
2019-05-07T02:32:13.327Z,78.90
2019-05-07T02:34:44.139Z,78.70
2019-05-07T02:37:13.641Z,78.80
2019-05-07T02:39:44.540Z,78.60
2019-05-07T02:42:13.236Z,78.80
2019-05-07T02:45:00.065Z,78.80
2019-05-07T02:47:33.100Z,78.60
2019-05-07T02:50:18.710Z,78.40
2019-05-07T02:52:55.006Z,78.40
2019-05-07T02:55:43.808Z,78.60
2019-05-07T02:58:13.769Z,78.80
2019-05-07T03:00:43.488Z,79.30
2019-05-07T03:03:13.879Z,79.80
2019-05-07T03:05:43.409Z,79.90
2019-05-07T03:08:13.415Z,79.30
2019-05-07T03:10:43.495Z,78.70
2019-05-07T03:13:15.872Z,78.90
2019-05-07T03:15:44.569Z,79.10
2019-05-07T03:18:13.946Z,78.80
2019-05-07T03:20:53.495Z,79.10
2019-05-07T03:23:23.187Z,79.50
2019-05-07T03:25:56.351Z,80.20
2019-05-07T03:28:26.153Z,80.60
2019-05-07T03:30:57.191Z,80.80
2019-05-07T03:33:27.703Z,82.50
2019-05-07T03:35:57.917Z,82.50
2019-05-07T03:38:26.704Z,83.30
2019-05-07T03:40:55.275Z,83.30
2019-05-07T03:43:27.372Z,83.40
2019-05-07T03:46:14.127Z,83.70
2019-05-07T03:48:44.299Z,83.80
2019-05-07T03:51:15.808Z,84.20
2019-05-07T03:53:44.643Z,84.70
2019-05-07T03:56:13.671Z,85.10
2019-05-07T03:58:43.336Z,85.80
2019-05-07T04:01:13.292Z,85.50
2019-05-07T04:03:44.651Z,85.80
2019-05-07T04:06:12.962Z,85.80
2019-05-07T04:08:43.334Z,87.00
2019-05-07T04:11:13.837Z,87.10
2019-05-07T04:13:44.157Z,87.40
2019-05-07T04:16:13.541Z,88.00
2019-05-07T04:18:43.917Z,88.30
2019-05-07T04:21:14.054Z,88.90
2019-05-07T04:23:43.808Z,89.70
2019-05-07T04:26:17.050Z,89.50
2019-05-07T04:28:53.658Z,89.80
2019-05-07T04:31:23.130Z,90.30
2019-05-07T04:33:53.355Z,90.70
2019-05-07T04:36:23.556Z,90.70
2019-05-07T04:38:53.212Z,90.60
2019-05-07T04:41:23.323Z,91.00
2019-05-07T04:43:56.320Z,91.30
2019-05-07T04:46:24.861Z,91.30
2019-05-07T04:48:53.849Z,91.30
2019-05-07T04:51:24.069Z,91.10
2019-05-07T04:53:54.209Z,91.10
2019-05-07T04:56:24.034Z,91.10
2019-05-07T04:58:53.217Z,91.20
2019-05-07T05:01:23.844Z,91.40
2019-05-07T05:03:53.960Z,91.20
2019-05-07T05:06:24.199Z,91.20
2019-05-07T05:08:56.049Z,90.80
2019-05-07T05:11:23.843Z,90.20
2019-05-07T05:13:53.313Z,89.40
2019-05-07T05:16:28.513Z,88.90
2019-05-07T05:18:57.182Z,89.90
2019-05-07T05:21:42.520Z,89.60
2019-05-07T05:24:15.627Z,89.00
2019-05-07T05:26:44.080Z,88.90
2019-05-07T05:29:12.670Z,88.50
2019-05-07T05:31:42.119Z,88.70
2019-05-07T05:34:13.080Z,90.00
2019-05-07T05:36:42.498Z,88.50
2019-05-07T05:39:13.176Z,88.80
2019-05-07T05:41:44.144Z,88.30
2019-05-07T05:44:14.663Z,88.00
2019-05-07T05:46:43.336Z,88.00
2019-05-07T05:49:12.239Z,87.80
2019-05-07T05:51:43.091Z,87.50
2019-05-07T05:54:19.091Z,87.70
2019-05-07T05:56:55.195Z,88.10
2019-05-07T05:59:47.848Z,86.80
2019-05-07T06:02:25.594Z,85.70
2019-05-07T06:04:55.838Z,85.20
2019-05-07T06:07:32.430Z,84.80
2019-05-07T06:10:08.641Z,84.50
2019-05-07T06:12:38.776Z,84.90
2019-05-07T06:15:09.568Z,84.10
2019-05-07T06:17:45.365Z,83.30
2019-05-07T06:20:16.830Z,83.30
2019-05-07T06:23:03.169Z,83.00
2019-05-07T06:25:33.443Z,83.00
2019-05-07T06:28:02.005Z,82.40
2019-05-07T06:30:30.613Z,82.90
2019-05-07T06:32:59.108Z,82.80
2019-05-07T06:35:27.595Z,83.60
2019-05-07T06:37:56.081Z,82.80
2019-05-07T06:40:32.272Z,83.00
2019-05-07T06:43:05.740Z,83.70
2019-05-07T06:45:42.365Z,83.60
2019-05-07T06:48:12.682Z,82.80
2019-05-07T06:50:43.270Z,82.50
2019-05-07T06:53:12.203Z,83.40
2019-05-07T06:55:42.690Z,82.70
2019-05-07T06:58:12.254Z,83.70
2019-05-07T07:00:42.647Z,82.60
2019-05-07T07:03:15.739Z,81.80
2019-05-07T07:05:45.895Z,81.30
2019-05-07T07:08:28.461Z,81.80
2019-05-07T07:11:07.680Z,78.80
2019-05-07T07:13:36.238Z,78.50
2019-05-07T07:16:04.835Z,76.60
2019-05-07T07:18:33.402Z,72.50
2019-05-07T07:21:02.701Z,72.90
2019-05-07T07:23:32.317Z,71.60
2019-05-07T07:26:03.123Z,70.70
2019-05-07T07:28:32.646Z,70.70
2019-05-07T07:31:19.562Z,70.60
2019-05-07T07:33:49.680Z,70.90
2019-05-07T07:36:19.107Z,71.30
2019-05-07T07:38:47.672Z,72.70
2019-05-07T07:41:32.508Z,71.60
2019-05-07T07:44:02.108Z,68.30
2019-05-07T07:46:32.819Z,66.10
2019-05-07T07:49:07.910Z,66.60
2019-05-07T07:51:40.659Z,63.70
2019-05-07T07:54:02.439Z,60.30
2019-05-07T07:56:47.835Z,60.10
2019-05-07T07:59:17.472Z,62.00
2019-05-07T08:01:47.628Z,61.60
2019-05-07T08:04:16.123Z,61.20
2019-05-07T08:06:45.933Z,58.60
2019-05-07T08:09:14.428Z,56.40
2019-05-07T08:11:42.960Z,54.80
2019-05-07T08:14:12.616Z,53.80
2019-05-07T08:16:42.897Z,54.90
2019-05-07T08:19:21.680Z,55.30
2019-05-07T08:21:42.522Z,55.50
2019-05-07T08:24:12.238Z,54.60
2019-05-07T08:26:42.816Z,51.80
2019-05-07T08:29:11.939Z,52.80
2019-05-07T08:31:48.226Z,52.20
2019-05-07T08:34:32.503Z,49.00
2019-05-07T08:37:01.844Z,53.20
2019-05-07T08:39:32.561Z,51.10
2019-05-07T08:42:02.060Z,49.20
2019-05-07T08:44:35.394Z,48.20
2019-05-07T08:47:05.593Z,49.60
2019-05-07T08:49:39.649Z,53.90
2019-05-07T08:52:05.239Z,50.40
2019-05-07T08:54:34.064Z,50.90
2019-05-07T08:57:02.828Z,48.80
2019-05-07T08:59:32.812Z,47.70
2019-05-07T09:02:02.944Z,48.60
2019-05-07T09:04:32.765Z,44.60
2019-05-07T09:07:02.627Z,46.50
2019-05-07T09:09:32.576Z,44.60
2019-05-07T09:12:03.306Z,45.80
2019-05-07T09:14:32.322Z,46.50
2019-05-07T09:17:02.612Z,45.60
2019-05-07T09:19:46.838Z,46.30
2019-05-07T09:22:03.484Z,48.40
2019-05-07T09:24:35.028Z,46.00
2019-05-07T09:27:17.104Z,42.90
2019-05-07T09:29:47.300Z,46.50
2019-05-07T09:32:32.853Z,45.30
2019-05-07T09:35:08.764Z,43.50
2019-05-07T09:37:37.410Z,43.30
2019-05-07T09:40:07.602Z,45.10
2019-05-07T09:42:36.082Z,43.70
2019-05-07T09:45:07.380Z,42.90
2019-05-07T09:47:35.926Z,42.40
2019-05-07T09:50:08.095Z,42.70
2019-05-07T09:52:36.250Z,37.90
2019-05-07T09:55:14.856Z,38.20
2019-05-07T09:57:37.374Z,38.40
2019-05-07T10:00:09.701Z,38.30
2019-05-07T10:02:38.324Z,36.90
2019-05-07T10:05:07.176Z,35.80
2019-05-07T10:07:35.877Z,35.90
2019-05-07T10:10:07.600Z,32.80
2019-05-07T10:12:42.073Z,34.40
2019-05-07T10:15:12.342Z,35.90
2019-05-07T10:17:45.449Z,36.60
2019-05-07T10:20:21.574Z,38.50
2019-05-07T10:22:46.778Z,39.60
2019-05-07T10:25:15.924Z,35.80
2019-05-07T10:27:44.532Z,38.50
2019-05-07T10:30:13.156Z,36.90
2019-05-07T10:32:42.397Z,40.50
2019-05-07T10:35:12.818Z,39.50
2019-05-07T10:37:42.267Z,37.00
2019-05-07T10:40:13.404Z,37.80
2019-05-07T10:42:43.028Z,36.00
2019-05-07T10:45:32.299Z,35.20
2019-05-07T10:48:02.700Z,33.30
2019-05-07T10:50:38.662Z,34.40
2019-05-07T10:53:03.272Z,29.80
2019-05-07T10:55:33.021Z,31.70
2019-05-07T10:58:02.978Z,30.10
2019-05-07T11:00:33.141Z,30.90
2019-05-07T11:03:02.465Z,33.60
2019-05-07T11:05:32.602Z,33.50
2019-05-07T11:08:02.250Z,31.40
2019-05-07T11:10:32.721Z,33.70
2019-05-07T11:13:02.405Z,35.20
2019-05-07T11:15:32.685Z,34.00
2019-05-07T11:18:21.817Z,31.60
2019-05-07T11:20:53.243Z,32.10
2019-05-07T11:23:22.235Z,32.90
2019-05-07T11:25:52.674Z,32.50
2019-05-07T11:28:22.735Z,34.70
2019-05-07T11:30:51.380Z,34.40
2019-05-07T11:33:21.874Z,31.40
2019-05-07T11:35:50.122Z,31.80
2019-05-07T11:38:24.085Z,33.60
2019-05-07T11:40:48.868Z,32.10
2019-05-07T11:43:19.125Z,32.60
2019-05-07T11:45:49.246Z,32.20
2019-05-07T11:48:18.973Z,32.80
2019-05-07T11:51:05.598Z,28.40
2019-05-07T11:53:35.710Z,27.80
2019-05-07T11:56:04.312Z,32.30
2019-05-07T11:58:32.795Z,32.90
2019-05-07T12:01:03.991Z,28.60
2019-05-07T12:03:32.751Z,29.60
2019-05-07T12:06:02.046Z,32.60
2019-05-07T12:08:39.408Z,30.40
2019-05-07T12:11:02.375Z,29.80
2019-05-07T12:13:32.315Z,32.00
2019-05-07T12:16:02.994Z,30.50
2019-05-07T12:18:32.058Z,32.40
2019-05-07T12:21:03.750Z,29.70
2019-05-07T12:23:33.252Z,31.60
2019-05-07T12:26:02.260Z,31.80
2019-05-07T12:28:32.763Z,28.60
2019-05-07T12:31:18.529Z,30.20
2019-05-07T12:33:48.735Z,34.00
2019-05-07T12:36:17.234Z,36.10
2019-05-07T12:38:45.779Z,33.00
2019-05-07T12:41:29.726Z,31.50
2019-05-07T12:44:02.343Z,34.80
2019-05-07T12:46:33.379Z,38.20
2019-05-07T12:49:03.108Z,36.70
2019-05-07T12:51:37.557Z,35.30
2019-05-07T12:54:08.970Z,37.40
2019-05-07T12:56:37.415Z,38.10
2019-05-07T12:59:06.044Z,36.20
2019-05-07T13:01:52.723Z,38.90
2019-05-07T13:04:25.590Z,36.80
2019-05-07T13:06:56.113Z,36.60
2019-05-07T13:09:25.007Z,36.40
2019-05-07T13:11:53.632Z,37.40
2019-05-07T13:14:22.190Z,36.90
2019-05-07T13:16:52.281Z,35.70
2019-05-07T13:19:22.634Z,38.20
2019-05-07T13:21:51.433Z,35.80
2019-05-07T13:24:19.891Z,35.80
2019-05-07T13:26:51.821Z,33.10
2019-05-07T13:29:22.205Z,30.50
2019-05-07T13:31:54.257Z,31.50
2019-05-07T13:34:22.945Z,32.90
2019-05-07T13:36:54.766Z,34.20
2019-05-07T13:39:34.010Z,35.50
2019-05-07T13:42:09.115Z,35.00
2019-05-07T13:44:42.371Z,34.20
2019-05-07T13:47:27.920Z,34.30
2019-05-07T13:49:57.075Z,35.70
2019-05-07T13:52:26.254Z,35.40
2019-05-07T13:54:55.547Z,36.90
2019-05-07T13:57:24.162Z,38.60
2019-05-07T13:59:53.338Z,37.70
2019-05-07T14:02:23.614Z,37.90
2019-05-07T14:04:52.738Z,36.50
2019-05-07T14:07:22.292Z,36.10
2019-05-07T14:09:52.730Z,32.90
2019-05-07T14:12:22.885Z,34.40
2019-05-07T14:14:53.041Z,35.60
2019-05-07T14:17:22.412Z,36.90
2019-05-07T14:19:53.009Z,36.90
2019-05-07T14:22:22.551Z,34.50
2019-05-07T14:24:53.118Z,34.50
2019-05-07T14:27:22.002Z,33.80
2019-05-07T14:29:51.986Z,34.00
2019-05-07T14:32:27.068Z,31.20
2019-05-07T14:35:03.839Z,34.20
2019-05-07T14:37:37.093Z,35.30
2019-05-07T14:40:09.218Z,38.20
2019-05-07T14:42:45.171Z,34.90
2019-05-07T14:45:14.391Z,36.90
2019-05-07T14:47:44.785Z,40.00
2019-05-07T14:50:14.665Z,39.70
2019-05-07T14:52:43.421Z,37.90
2019-05-07T14:55:12.853Z,39.60
2019-05-07T14:57:42.059Z,38.20
2019-05-07T15:00:12.246Z,41.20
2019-05-07T15:02:42.223Z,40.00
2019-05-07T15:05:12.063Z,38.40
2019-05-07T15:07:41.932Z,39.10
2019-05-07T15:10:11.297Z,42.30
2019-05-07T15:12:39.993Z,42.70
2019-05-07T15:15:09.238Z,43.00
2019-05-07T15:17:42.550Z,41.80
2019-05-07T15:20:11.565Z,42.80
2019-05-07T15:22:49.127Z,42.30
2019-05-07T15:25:14.476Z,41.10
2019-05-07T15:27:44.751Z,42.00
2019-05-07T15:30:14.001Z,43.00
2019-05-07T15:32:42.868Z,40.80
2019-05-07T15:35:12.728Z,41.00
2019-05-07T15:37:42.715Z,44.00
2019-05-07T15:40:11.726Z,45.10
2019-05-07T15:42:42.147Z,43.50
2019-05-07T15:45:12.495Z,43.30
2019-05-07T15:47:43.363Z,44.30
2019-05-07T15:50:12.479Z,39.90
2019-05-07T15:52:57.615Z,43.00
2019-05-07T15:55:16.378Z,42.30
2019-05-07T15:57:44.938Z,42.20
2019-05-07T16:00:25.871Z,41.60
2019-05-07T16:03:08.111Z,42.10
2019-05-07T16:05:36.710Z,43.60
2019-05-07T16:08:07.056Z,42.60
2019-05-07T16:10:35.601Z,41.50
2019-05-07T16:13:04.805Z,41.30
2019-05-07T16:15:33.796Z,42.90
2019-05-07T16:18:09.930Z,43.00
2019-05-07T16:20:38.453Z,44.20
2019-05-07T16:23:14.718Z,43.20
2019-05-07T16:25:37.135Z,43.50
2019-05-07T16:28:05.966Z,43.40
2019-05-07T16:30:36.860Z,42.10
2019-05-07T16:33:04.709Z,42.80
2019-05-07T16:35:33.262Z,42.20
2019-05-07T16:38:01.792Z,42.60
2019-05-07T16:40:32.217Z,43.10
2019-05-07T16:43:02.600Z,42.00
2019-05-07T16:45:30.727Z,43.20
2019-05-07T16:48:01.090Z,42.90
2019-05-07T16:50:29.396Z,42.60
2019-05-07T16:52:58.234Z,42.00
2019-05-07T16:55:28.348Z,43.20
2019-05-07T16:58:01.921Z,43.10
2019-05-07T17:00:38.045Z,44.50
2019-05-07T17:03:08.220Z,45.60
2019-05-07T17:05:38.291Z,46.10
2019-05-07T17:08:08.381Z,45.60
2019-05-07T17:10:36.885Z,46.40
2019-05-07T17:13:05.424Z,47.70
2019-05-07T17:15:35.542Z,48.00
2019-05-07T17:18:04.095Z,48.50
2019-05-07T17:20:33.071Z,48.70
2019-05-07T17:23:02.978Z,50.30
2019-05-07T17:25:37.539Z,49.60
2019-05-07T17:28:12.481Z,49.70
2019-05-07T17:30:42.106Z,51.20
2019-05-07T17:33:12.832Z,50.20
2019-05-07T17:35:42.321Z,49.00
2019-05-07T17:38:12.852Z,49.40
2019-05-07T17:40:42.360Z,49.70
2019-05-07T17:43:12.306Z,50.20
2019-05-07T17:45:42.919Z,50.40
2019-05-07T17:48:12.276Z,51.10
2019-05-07T17:50:43.065Z,51.60
2019-05-07T17:53:11.976Z,50.80
2019-05-07T17:55:42.281Z,51.30
2019-05-07T17:58:12.874Z,49.80
2019-05-07T18:00:43.280Z,51.00
2019-05-07T18:03:22.458Z,51.70
2019-05-07T18:05:51.915Z,51.10
2019-05-07T18:08:21.755Z,51.40
2019-05-07T18:10:50.310Z,50.30
2019-05-07T18:13:18.788Z,50.70
2019-05-07T18:15:47.408Z,51.40
2019-05-07T18:18:15.943Z,51.10
2019-05-07T18:20:44.495Z,51.70
2019-05-07T18:23:16.928Z,52.60
2019-05-07T18:25:43.538Z,52.80
2019-05-07T18:28:12.858Z,52.90
2019-05-07T18:30:41.367Z,53.30
2019-05-07T18:33:14.207Z,52.50
2019-05-07T18:35:45.378Z,52.70
2019-05-07T18:38:14.137Z,52.60
2019-05-07T18:40:42.596Z,53.50
2019-05-07T18:43:12.282Z,53.40
2019-05-07T18:45:41.101Z,53.60
2019-05-07T18:48:11.721Z,53.80
2019-05-07T18:50:41.827Z,53.80
2019-05-07T18:53:11.999Z,53.60
2019-05-07T18:55:42.200Z,54.10
2019-05-07T18:58:10.509Z,54.40
2019-05-07T19:00:43.777Z,54.60
2019-05-07T19:03:12.360Z,54.10
2019-05-07T19:05:42.424Z,54.10
2019-05-07T19:08:12.604Z,53.90
2019-05-07T19:10:42.910Z,54.10
2019-05-07T19:13:11.764Z,54.00
2019-05-07T19:15:42.022Z,54.20
2019-05-07T19:18:12.026Z,54.60
2019-05-07T19:20:42.203Z,54.30
2019-05-07T19:23:10.831Z,54.20
2019-05-07T19:25:39.285Z,54.70
2019-05-07T19:28:07.769Z,54.90
2019-05-07T19:30:36.234Z,54.70
2019-05-07T19:33:04.760Z,55.00
2019-05-07T19:35:33.324Z,56.40
2019-05-07T19:38:02.842Z,56.20
2019-05-07T19:40:32.505Z,56.00
2019-05-07T19:43:03.002Z,56.40
2019-05-07T19:45:31.621Z,56.80
2019-05-07T19:48:00.170Z,57.00
2019-05-07T19:50:28.652Z,57.30
2019-05-07T19:52:57.101Z,57.80
2019-05-07T19:55:25.641Z,58.30
2019-05-07T19:57:55.766Z,58.50
2019-05-07T20:00:26.151Z,59.30
2019-05-07T20:02:58.950Z,59.40
2019-05-07T20:05:27.497Z,58.60
2019-05-07T20:07:59.554Z,58.40
2019-05-07T20:10:27.878Z,58.60
2019-05-07T20:12:56.367Z,58.60
2019-05-07T20:15:25.165Z,58.60
2019-05-07T20:17:53.648Z,59.10
2019-05-07T20:20:22.452Z,59.20
2019-05-07T20:22:51.849Z,59.00
2019-05-07T20:25:22.547Z,58.60
2019-05-07T20:27:52.695Z,58.20
2019-05-07T20:30:22.865Z,58.90
2019-05-07T20:32:52.291Z,59.20
2019-05-07T20:35:21.064Z,58.90
2019-05-07T20:37:49.612Z,59.20
2019-05-07T20:40:18.102Z,59.70
2019-05-07T20:42:46.583Z,59.80
2019-05-07T20:45:15.469Z,60.60
2019-05-07T20:47:43.988Z,60.70
2019-05-07T20:50:12.859Z,60.20
2019-05-07T20:52:42.183Z,59.90
2019-05-07T20:55:27.986Z,60.80
2019-05-07T20:57:47.237Z,61.10
2019-05-07T21:00:27.612Z,60.90
2019-05-07T21:03:14.296Z,61.10
2019-05-07T21:05:42.922Z,61.30
2019-05-07T21:08:11.996Z,61.20
2019-05-07T21:10:42.626Z,60.90
2019-05-07T21:13:26.988Z,61.40
2019-05-07T21:15:42.026Z,60.90
2019-05-07T21:18:14.212Z,62.50
2019-05-07T21:20:42.796Z,63.30
2019-05-07T21:23:12.207Z,62.70
2019-05-07T21:25:43.494Z,63.90
2019-05-07T21:28:12.196Z,64.90
2019-05-07T21:30:42.705Z,65.10
2019-05-07T21:33:11.974Z,64.50
2019-05-07T21:35:42.745Z,63.60
2019-05-07T21:38:12.779Z,64.00
2019-05-07T21:40:42.867Z,63.60
2019-05-07T21:43:12.045Z,64.10
2019-05-07T21:45:42.347Z,64.20
2019-05-07T21:48:13.546Z,64.40
2019-05-07T21:50:41.649Z,64.50
2019-05-07T21:53:12.099Z,64.00
2019-05-07T21:56:01.682Z,64.40
2019-05-07T21:58:26.329Z,63.90
2019-05-07T22:01:02.030Z,64.40
2019-05-07T22:03:34.695Z,65.00
2019-05-07T22:06:02.607Z,65.00
2019-05-07T22:08:32.564Z,65.30
2019-05-07T22:11:04.703Z,65.20
2019-05-07T22:13:33.534Z,65.40
2019-05-07T22:16:02.726Z,65.40
2019-05-07T22:18:32.013Z,64.80
2019-05-07T22:21:02.926Z,65.20
2019-05-07T22:23:32.463Z,65.50
2019-05-07T22:26:18.369Z,64.80
2019-05-07T22:28:32.997Z,64.90
2019-05-07T22:31:03.186Z,64.60
2019-05-07T22:33:49.507Z,64.60
2019-05-07T22:36:18.128Z,64.70
2019-05-07T22:38:46.648Z,65.70
2019-05-07T22:41:15.131Z,65.70
2019-05-07T22:43:43.696Z,66.10
2019-05-07T22:46:14.124Z,66.10
2019-05-07T22:48:42.679Z,65.70
2019-05-07T22:51:12.303Z,66.50
2019-05-07T22:53:41.005Z,66.50
2019-05-07T22:56:09.565Z,67.00
2019-05-07T22:58:41.848Z,67.10
2019-05-07T23:01:13.078Z,66.90
2019-05-07T23:03:43.020Z,67.00
2019-05-07T23:06:12.387Z,66.80
2019-05-07T23:08:42.473Z,67.30
2019-05-07T23:11:12.219Z,66.20
2019-05-07T23:13:42.765Z,66.30
2019-05-07T23:16:12.595Z,66.50
2019-05-07T23:18:42.867Z,66.50
2019-05-07T23:21:11.541Z,66.60
2019-05-07T23:23:42.247Z,66.70
2019-05-07T23:26:14.261Z,66.70
2019-05-07T23:28:41.845Z,66.20
2019-05-07T23:31:12.147Z,65.30
2019-05-07T23:33:40.778Z,65.30
2019-05-07T23:36:12.918Z,65.80
2019-05-07T23:38:42.636Z,65.80
2019-05-07T23:41:13.303Z,67.00
2019-05-07T23:43:42.404Z,67.60
2019-05-07T23:46:12.848Z,68.50
2019-05-07T23:48:42.705Z,69.50
2019-05-07T23:51:12.639Z,69.50
2019-05-07T23:53:44.204Z,69.90
2019-05-07T23:56:13.131Z,69.10
2019-05-07T23:58:42.014Z,69.40
